Time;durP1;ratioP1;P1;durP2;ratioP2;P2;SDS_P1;SDS_P2;PMS_P1;PMS_P2;Temp;Humidity;BMP_temperature;BMP_pressure;BME280_temperature;BME280_humidity;BME280_pressure;Samples;Min_cycle;Max_cycle;Signal;HPM_P1;HPM_P2
2021/06/11 00:02:06;;;;;;;;;;;;;;;20.58;66.91;100693.31;4971697;28;1597;-45
2021/06/11 00:04:33;;;;;;;;;;;;;;;20.60;67.67;100694.88;4971603;28;1619;-44
2021/06/11 00:07:01;;;;;;;;;;;;;;;20.60;67.57;100692.19;4969945;28;1497;-45
2021/06/11 00:09:28;;;;;;;;;;;;;;;20.60;66.76;100705.63;4971990;28;1321;-45
2021/06/11 00:11:56;;;;;;;;;;;;;;;20.60;66.81;100684.13;4970310;28;1244;-45
2021/06/11 00:14:22;;;;;;;;;;;;;;;20.60;66.68;100699.41;4971868;28;1666;-46
2021/06/11 00:16:48;;;;;;;;;;;;;;;20.60;67.74;100716.38;4971817;28;1093;-45
2021/06/11 00:19:14;;;;;;;;;;;;;;;20.58;66.81;100706.75;4970504;28;1968;-44
2021/06/11 00:21:40;;;;;;;;;;;;;;;20.61;66.86;100706.47;4970620;28;1619;-44
2021/06/11 00:24:12;;;;;;;;;;;;;;;20.62;67.69;100700.09;4971292;28;1834;-45
2021/06/11 00:26:38;;;;;;;;;;;;;;;20.60;67.60;100694.88;4971262;28;1650;-45
2021/06/11 00:29:05;;;;;;;;;;;;;;;20.62;68.07;100702.78;4972156;28;1447;-45
2021/06/11 00:31:32;;;;;;;;;;;;;;;20.58;67.01;100702.22;4971199;28;1531;-45
2021/06/11 00:34:08;;;;;;;;;;;;;;;20.58;67.19;100687.94;4970747;28;1431;-45
2021/06/11 00:36:35;;;;;;;;;;;;;;;20.59;67.89;100698.56;4966607;28;1695;-45
2021/06/11 00:39:03;;;;;;;;;;;;;;;20.63;67.10;100694.59;4966659;28;1906;-45
2021/06/11 00:41:33;;;;;;;;;;;;;;;20.61;67.25;100701.97;4971319;28;1693;-45
2021/06/11 00:44:00;;;;;;;;;;;;;;;20.60;67.17;100711.00;4971841;28;1063;-45
2021/06/11 00:46:35;;;;;;;;;;;;;;;20.58;66.89;100691.47;4970960;28;1297;-45
2021/06/11 00:49:01;;;;;;;;;;;;;;;20.59;66.96;100685.13;4967763;28;1777;-45
2021/06/11 00:51:28;;;;;;;;;;;;;;;20.58;67.18;100707.56;4966623;28;1798;-45
2021/06/11 00:53:55;;;;;;;;;;;;;;;20.59;68.22;100692.31;4963861;28;1734;-45
2021/06/11 00:56:22;;;;;;;;;;;;;;;20.58;67.08;100704.88;4971171;28;1758;-46
2021/06/11 00:58:59;;;;;;;;;;;;;;;20.57;66.82;100695.16;4970988;28;1902;-46
2021/06/11 01:01:25;;;;;;;;;;;;;;;20.56;66.84;100687.25;4971019;28;1524;-48
2021/06/11 01:03:54;;;;;;;;;;;;;;;20.55;67.11;100680.16;4971068;28;1404;-45
2021/06/11 01:06:21;;;;;;;;;;;;;;;20.58;67.83;100693.31;4968816;28;1729;-45
2021/06/11 01:08:48;;;;;;;;;;;;;;;20.58;67.89;100696.84;4967862;28;1762;-45
2021/06/11 01:11:14;;;;;;;;;;;;;;;20.58;67.05;100698.69;4970671;28;1599;-45
2021/06/11 01:13:43;;;;;;;;;;;;;;;20.57;66.88;100678.16;4971323;28;1216;-45
2021/06/11 01:16:15;;;;;;;;;;;;;;;20.56;67.15;100679.19;4970378;28;1877;-45
2021/06/11 01:18:42;;;;;;;;;;;;;;;20.55;67.11;100670.28;4969355;28;2040;-45
2021/06/11 01:21:08;;;;;;;;;;;;;;;20.54;67.93;100675.78;4966804;28;1516;-45
2021/06/11 01:23:56;;;;;;;;;;;;;;;20.53;67.51;100674.97;4970419;28;1443;-45
2021/06/11 01:26:28;;;;;;;;;;;;;;;20.55;67.20;100675.66;4969423;28;1867;-45
2021/06/11 01:28:56;;;;;;;;;;;;;;;20.53;67.22;100668.72;4974028;28;1743;-45
2021/06/11 01:31:22;;;;;;;;;;;;;;;20.54;67.34;100668.56;4966476;28;1918;-45
2021/06/11 01:33:51;;;;;;;;;;;;;;;20.54;68.09;100684.69;4970688;28;1761;-45
2021/06/11 01:39:08;;;;;;;;;;;;;;;20.54;67.50;100665.88;4972108;28;2003;-45
2021/06/11 01:41:46;;;;;;;;;;;;;;;20.54;67.30;100665.03;4973382;28;1618;-45
2021/06/11 01:44:13;;;;;;;;;;;;;;;20.55;66.84;100670.28;4971229;28;1354;-46
2021/06/11 01:46:43;;;;;;;;;;;;;;;20.53;67.83;100666.91;4973357;28;1987;-45
2021/06/11 01:51:50;;;;;;;;;;;;;;;20.56;67.82;100655.00;4971115;28;2297;-45
2021/06/11 01:54:17;;;;;;;;;;;;;;;20.53;67.36;100645.41;4973624;28;1374;-45
2021/06/11 01:56:50;;;;;;;;;;;;;;;20.52;67.52;100651.75;4973508;28;1798;-45
2021/06/11 01:59:18;;;;;;;;;;;;;;;20.54;67.63;100649.75;4973339;28;1981;-45
2021/06/11 02:01:46;;;;;;;;;;;;;;;20.53;67.22;100648.09;5005888;23;3541;-68
2021/06/11 02:04:13;;;;;;;;;;;;;;;20.53;67.59;100653.47;4999150;28;1399;-68
2021/06/11 02:06:40;;;;;;;;;;;;;;;20.54;67.92;100649.75;5004126;28;1383;-68
2021/06/11 02:09:07;;;;;;;;;;;;;;;20.53;67.98;100656.16;5002857;28;1520;-68
2021/06/11 02:11:33;;;;;;;;;;;;;;;20.55;67.94;100645.22;4999304;28;1676;-68
2021/06/11 02:14:00;;;;;;;;;;;;;;;20.55;67.20;100654.16;4975020;28;1519;-67
2021/06/11 02:16:28;;;;;;;;;;;;;;;20.53;68.35;100660.66;5004490;28;1333;-68
2021/06/11 02:18:55;;;;;;;;;;;;;;;20.53;68.29;100658.84;5000318;28;1945;-68
2021/06/11 02:21:21;;;;;;;;;;;;;;;20.51;68.29;100652.72;5002032;28;1784;-69
2021/06/11 02:23:47;;;;;;;;;;;;;;;20.51;67.86;100658.09;5000040;28;1418;-68
2021/06/11 02:26:14;;;;;;;;;;;;;;;20.50;67.36;100656.44;4995644;28;1377;-67
2021/06/11 02:28:41;;;;;;;;;;;;;;;20.50;67.34;100650.22;5003731;28;1579;-67
2021/06/11 02:31:09;;;;;;;;;;;;;;;20.51;67.93;100652.72;5002508;28;1491;-67
2021/06/11 02:33:36;;;;;;;;;;;;;;;20.51;67.79;100666.16;5001586;28;1634;-67
2021/06/11 02:36:08;;;;;;;;;;;;;;;20.49;67.45;100646.66;4995965;28;1403;-68
2021/06/11 02:38:34;;;;;;;;;;;;;;;20.51;67.60;100658.09;4997158;28;1979;-68
2021/06/11 02:44:03;;;;;;;;;;;;;;;20.50;68.29;100667.19;5002391;28;1355;-68
2021/06/11 02:46:35;;;;;;;;;;;;;;;20.50;68.39;100661.81;5000212;28;1237;-68
2021/06/11 02:49:05;;;;;;;;;;;;;;;20.51;67.63;100652.72;4994349;28;1453;-68
2021/06/11 02:51:33;;;;;;;;;;;;;;;20.48;68.34;100658.41;5001448;28;1519;-68
2021/06/11 02:54:01;;;;;;;;;;;;;;;20.48;67.79;100666.47;4998574;28;1388;-67
2021/06/11 02:56:29;;;;;;;;;;;;;;;20.51;68.21;100666.16;5002111;28;1448;-68
2021/06/11 02:58:56;;;;;;;;;;;;;;;20.49;68.25;100660.09;4992958;28;1907;-67
2021/06/11 03:01:24;;;;;;;;;;;;;;;20.49;68.31;100654.72;5003358;28;1306;-67
2021/06/11 03:03:52;;;;;;;;;;;;;;;20.53;67.48;100680.34;5000452;28;1702;-68
2021/06/11 03:06:19;;;;;;;;;;;;;;;20.50;67.18;100667.19;5000811;28;1584;-67
2021/06/11 03:08:47;;;;;;;;;;;;;;;20.51;67.73;100673.38;5000283;28;1530;-67
2021/06/11 03:11:18;;;;;;;;;;;;;;;20.52;67.12;100672.41;5000478;28;1618;-68
2021/06/11 03:13:44;;;;;;;;;;;;;;;20.53;67.96;100674.97;5008849;28;983;-68
2021/06/11 03:16:10;;;;;;;;;;;;;;;20.54;67.56;100662.38;5000301;28;1506;-68
2021/06/11 03:18:39;;;;;;;;;;;;;;;20.52;67.57;100675.94;5001277;28;1910;-68
2021/06/11 03:21:10;;;;;;;;;;;;;;;20.51;68.19;100671.53;5001853;28;1582;-67
2021/06/11 03:23:41;;;;;;;;;;;;;;;20.53;67.00;100688.38;4999415;28;1534;-67
2021/06/11 03:26:07;;;;;;;;;;;;;;;20.53;67.36;100683.00;5000705;28;1394;-68
2021/06/11 03:28:37;;;;;;;;;;;;;;;20.53;67.23;100688.38;5003435;28;1571;-68
2021/06/11 03:31:04;;;;;;;;;;;;;;;20.54;67.67;100700.81;5002730;28;1562;-68
2021/06/11 03:33:31;;;;;;;;;;;;;;;20.53;68.22;100685.69;5000651;28;1594;-67
2021/06/11 03:36:00;;;;;;;;;;;;;;;20.49;67.19;100689.66;4999819;28;1480;-67
2021/06/11 03:38:30;;;;;;;;;;;;;;;20.51;68.10;100684.13;4995763;28;1907;-67
2021/06/11 03:40:57;;;;;;;;;;;;;;;20.51;68.25;100681.44;5002289;28;1579;-67
2021/06/11 03:43:24;;;;;;;;;;;;;;;20.50;67.31;100691.34;5003792;28;1331;-67
2021/06/11 03:45:51;;;;;;;;;;;;;;;20.51;67.03;100689.50;4997575;28;1444;-68
2021/06/11 03:48:18;;;;;;;;;;;;;;;20.51;67.77;100678.75;4994277;28;1444;-67
2021/06/11 03:50:47;;;;;;;;;;;;;;;20.49;67.35;100697.72;4993920;28;1610;-68
2021/06/11 03:53:15;;;;;;;;;;;;;;;20.50;67.17;100688.66;4994271;28;1571;-68
2021/06/11 03:55:44;;;;;;;;;;;;;;;20.50;67.34;100702.09;5001040;28;1415;-68
2021/06/11 03:58:13;;;;;;;;;;;;;;;20.51;68.14;100693.03;4993344;28;1910;-68
2021/06/11 04:00:40;;;;;;;;;;;;;;;20.51;67.11;100693.03;4993008;28;1444;-68
2021/06/11 04:03:06;;;;;;;;;;;;;;;20.52;68.05;100683.16;4994266;28;1586;-67
2021/06/11 04:05:33;;;;;;;;;;;;;;;20.50;67.91;100687.81;5000355;28;1638;-68
2021/06/11 04:08:00;;;;;;;;;;;;;;;20.50;67.21;100698.56;4996460;28;1336;-68
2021/06/11 04:10:29;;;;;;;;;;;;;;;20.56;67.17;100706.03;5003738;28;1529;-69
2021/06/11 04:12:57;;;;;;;;;;;;;;;20.57;67.16;100700.53;4999612;28;1340;-68
2021/06/11 04:15:25;;;;;;;;;;;;;;;20.50;68.34;100682.47;4997562;28;1773;-67
2021/06/11 04:17:53;;;;;;;;;;;;;;;20.53;68.24;100704.50;5000366;28;1973;-68
2021/06/11 04:20:21;;;;;;;;;;;;;;;20.25;67.70;100636.44;4996611;28;1534;-69
2021/06/11 04:22:49;;;;;;;;;;;;;;;20.54;67.94;100695.44;4992054;28;1611;-67
2021/06/11 04:25:16;;;;;;;;;;;;;;;20.51;67.37;100684.97;4991703;28;1308;-67
2021/06/11 04:27:44;;;;;;;;;;;;;;;20.53;67.77;100704.50;4998570;28;1355;-67
2021/06/11 04:30:13;;;;;;;;;;;;;;;20.52;68.28;100689.38;5001279;28;1382;-68
2021/06/11 04:32:41;;;;;;;;;;;;;;;20.53;67.94;100693.75;4998620;28;1594;-67
2021/06/11 04:35:07;;;;;;;;;;;;;;;20.55;68.23;100712.41;4992593;28;1400;-67
2021/06/11 04:37:35;;;;;;;;;;;;;;;20.55;67.64;100718.63;4999144;28;1910;-69
2021/06/11 04:40:01;;;;;;;;;;;;;;;20.59;68.02;100716.50;5000179;28;1626;-68
2021/06/11 04:42:27;;;;;;;;;;;;;;;20.57;67.54;100716.66;4997589;28;1514;-67
2021/06/11 04:44:54;;;;;;;;;;;;;;;20.59;67.60;100717.38;5002588;28;1386;-67
2021/06/11 04:47:21;;;;;;;;;;;;;;;20.57;67.83;100705.03;5001140;28;1386;-67
2021/06/11 04:49:47;;;;;;;;;;;;;;;20.58;67.98;100709.44;4993162;28;1344;-68
2021/06/11 04:52:13;;;;;;;;;;;;;;;20.57;67.95;100722.03;4999663;28;1051;-68
2021/06/11 04:54:39;;;;;;;;;;;;;;;20.55;67.26;100707.03;4999114;28;1765;-68
2021/06/11 04:57:06;;;;;;;;;;;;;;;20.58;67.24;100712.94;5000348;28;1391;-67
2021/06/11 04:59:32;;;;;;;;;;;;;;;20.57;68.13;100707.72;5008613;28;1914;-68
2021/06/11 05:01:58;;;;;;;;;;;;;;;20.54;67.08;100716.94;5002701;28;1626;-69
2021/06/11 05:04:25;;;;;;;;;;;;;;;20.55;67.72;100707.88;5004684;28;1415;-69
2021/06/11 05:06:51;;;;;;;;;;;;;;;20.54;67.85;100722.31;5003710;28;1406;-67
2021/06/11 05:09:17;;;;;;;;;;;;;;;20.55;67.69;100734.75;5003458;28;1010;-67
2021/06/11 05:11:44;;;;;;;;;;;;;;;20.53;67.20;100726.00;5002383;28;1643;-67
2021/06/11 05:14:10;;;;;;;;;;;;;;;20.56;67.26;100724.84;5013060;28;1525;-67
2021/06/11 05:16:36;;;;;;;;;;;;;;;20.53;67.24;100741.25;5001502;28;1499;-67
2021/06/11 05:19:03;;;;;;;;;;;;;;;20.57;67.56;100742.66;4996692;28;1980;-67
2021/06/11 05:21:30;;;;;;;;;;;;;;;20.58;67.90;100761.31;5003097;28;1509;-67
2021/06/11 05:23:56;;;;;;;;;;;;;;;20.57;68.46;100764.13;5000425;28;1750;-68
2021/06/11 05:26:23;;;;;;;;;;;;;;;20.62;69.98;100765.44;5002395;28;1413;-67
2021/06/11 05:28:49;;;;;;;;;;;;;;;20.61;70.18;100749.44;5002375;28;1390;-67
2021/06/11 05:31:15;;;;;;;;;;;;;;;20.65;69.43;100767.84;5003263;28;1583;-68
2021/06/11 05:33:41;;;;;;;;;;;;;;;20.65;69.38;100761.59;5003438;28;1576;-69
2021/06/11 05:36:07;;;;;;;;;;;;;;;20.67;70.58;100756.91;4993678;28;1374;-67
2021/06/11 05:38:35;;;;;;;;;;;;;;;20.76;68.60;100776.72;5001070;28;1907;-68
2021/06/11 05:41:02;;;;;;;;;;;;;;;20.76;69.24;100774.03;4991845;28;1389;-68
2021/06/11 05:43:28;;;;;;;;;;;;;;;20.77;70.34;100794.50;5004256;28;1075;-71
2021/06/11 05:45:54;;;;;;;;;;;;;;;20.80;70.35;100792.38;4999375;28;1546;-67
2021/06/11 05:48:20;;;;;;;;;;;;;;;20.79;69.68;100766.53;5000900;28;1487;-63
2021/06/11 05:50:46;;;;;;;;;;;;;;;20.83;69.94;100780.47;5006423;28;1572;-68
2021/06/11 05:53:12;;;;;;;;;;;;;;;20.80;69.97;100778.09;5002224;28;1519;-65
2021/06/11 05:55:40;;;;;;;;;;;;;;;20.82;70.20;100798.47;5003325;28;1435;-69
2021/06/11 05:58:09;;;;;;;;;;;;;;;20.82;70.16;100786.88;5005576;28;1914;-68
2021/06/11 06:00:35;;;;;;;;;;;;;;;20.81;69.64;100786.03;4997181;28;1436;-64
2021/06/11 06:03:01;;;;;;;;;;;;;;;20.77;68.92;100799.88;5005800;28;1698;-66
2021/06/11 06:05:27;;;;;;;;;;;;;;;20.79;69.61;100800.59;5004675;28;1581;-67
2021/06/11 06:07:53;;;;;;;;;;;;;;;20.76;69.58;100799.03;4993609;28;1273;-64
2021/06/11 06:10:19;;;;;;;;;;;;;;;20.77;69.56;100790.00;5001334;28;1523;-64
2021/06/11 06:12:47;;;;;;;;;;;;;;;20.74;69.44;100786.75;4995909;28;1399;-66
2021/06/11 06:15:13;;;;;;;;;;;;;;;20.79;68.60;100792.53;4993401;28;1519;-62
2021/06/11 06:17:39;;;;;;;;;;;;;;;20.79;69.40;100784.47;4999219;28;1908;-67
2021/06/11 06:20:07;;;;;;;;;;;;;;;20.74;68.86;100786.75;4990182;28;1707;-71
2021/06/11 06:22:33;;;;;;;;;;;;;;;20.72;68.59;100767.25;4994878;28;1250;-73
2021/06/11 06:24:59;;;;;;;;;;;;;;;20.72;68.62;100794.97;4996459;28;1249;-65
2021/06/11 06:27:25;;;;;;;;;;;;;;;20.70;69.01;100786.19;4993624;28;1380;-71
2021/06/11 06:29:53;;;;;;;;;;;;;;;20.90;69.32;100786.13;5001843;28;1371;-63
2021/06/11 06:32:19;;;;;;;;;;;;;;;21.06;68.94;100786.34;4997207;28;1707;-69
2021/06/11 06:34:45;;;;;;;;;;;;;;;21.17;69.26;100782.59;4996650;28;1739;-68
2021/06/11 06:37:12;;;;;;;;;;;;;;;21.19;70.08;100797.63;5005925;28;1721;-67
2021/06/11 06:39:38;;;;;;;;;;;;;;;21.22;69.09;100785.69;4997064;28;1910;-66
2021/06/11 06:42:04;;;;;;;;;;;;;;;21.20;69.63;100782.31;5000941;28;1626;-68
2021/06/11 06:44:31;;;;;;;;;;;;;;;21.26;69.58;100779.03;5006203;28;1370;-68
2021/06/11 06:46:58;;;;;;;;;;;;;;;21.25;69.44;100788.09;5002394;28;1126;-68
2021/06/11 06:49:24;;;;;;;;;;;;;;;21.22;68.98;100783.00;5001974;28;1702;-65
2021/06/11 06:51:50;;;;;;;;;;;;;;;21.21;69.71;100792.94;5006871;28;1757;-69
2021/06/11 06:54:17;;;;;;;;;;;;;;;21.20;69.16;100787.69;4996855;28;1377;-65
2021/06/11 06:56:43;;;;;;;;;;;;;;;21.21;69.77;100779.47;4998318;28;1711;-68
2021/06/11 06:59:09;;;;;;;;;;;;;;;21.18;70.13;100787.84;5007390;28;1971;-66
2021/06/11 07:01:35;;;;;;;;;;;;;;;21.15;70.07;100787.28;5001610;28;1435;-66
2021/06/11 07:04:02;;;;;;;;;;;;;;;21.10;70.07;100787.75;5003467;28;1031;-68
2021/06/11 07:06:29;;;;;;;;;;;;;;;21.06;69.43;100765.66;5004962;28;1443;-68
2021/06/11 07:08:55;;;;;;;;;;;;;;;21.16;68.99;100773.69;4997347;28;1586;-69
2021/06/11 07:11:21;;;;;;;;;;;;;;;21.13;67.52;100771.31;4992687;28;1389;-66
2021/06/11 07:13:47;;;;;;;;;;;;;;;21.18;67.55;100773.56;4996578;28;1225;-65
2021/06/11 07:16:13;;;;;;;;;;;;;;;21.36;68.41;100771.75;4999776;28;1448;-70
2021/06/11 07:18:39;;;;;;;;;;;;;;;21.40;67.97;100778.50;4999736;28;1973;-65
2021/06/11 07:21:07;;;;;;;;;;;;;;;21.38;67.08;100769.75;5001714;28;1547;-70
2021/06/11 07:23:34;;;;;;;;;;;;;;;21.39;66.75;100759.84;5002003;28;1594;-70
2021/06/11 07:26:02;;;;;;;;;;;;;;;21.41;67.59;100769.47;5000818;28;1391;-70
2021/06/11 07:28:28;;;;;;;;;;;;;;;21.48;66.71;100758.13;5003186;28;1524;-70
2021/06/11 07:30:54;;;;;;;;;;;;;;;21.46;67.87;100752.88;5000420;28;1586;-66
2021/06/11 07:33:20;;;;;;;;;;;;;;;21.49;68.16;100776.81;4996822;28;1472;-68
2021/06/11 07:35:46;;;;;;;;;;;;;;;21.44;67.91;100769.16;5001164;28;1611;-68
2021/06/11 07:38:14;;;;;;;;;;;;;;;21.36;69.09;100777.13;4999809;28;1910;-68
2021/06/11 07:40:40;;;;;;;;;;;;;;;21.35;68.92;100774.59;5001341;28;1655;-67
2021/06/11 07:43:06;;;;;;;;;;;;;;;21.35;68.02;100758.47;5002148;28;1594;-63
2021/06/11 07:45:33;;;;;;;;;;;;;;;21.34;69.09;100779.13;4995210;28;1758;-68
2021/06/11 07:47:59;;;;;;;;;;;;;;;21.34;68.60;100759.44;5001635;28;1673;-68
2021/06/11 07:50:28;;;;;;;;;;;;;;;21.41;69.03;100772.16;4992608;28;1702;-63
2021/06/11 07:52:54;;;;;;;;;;;;;;;21.40;68.31;100758.84;4998214;28;1572;-62
2021/06/11 07:55:21;;;;;;;;;;;;;;;21.41;68.27;100769.47;4996336;28;1620;-63
2021/06/11 07:57:47;;;;;;;;;;;;;;;21.38;68.05;100758.97;4996634;28;1523;-63
2021/06/11 08:00:13;;;;;;;;;;;;;;;21.30;68.16;100766.97;5002028;28;1964;-63
2021/06/11 08:02:41;;;;;;;;;;;;;;;21.29;68.64;100767.09;5001966;28;1661;-63
2021/06/11 08:05:08;;;;;;;;;;;;;;;21.30;68.54;100774.19;5000985;28;1215;-72
2021/06/11 08:07:34;;;;;;;;;;;;;;;21.29;68.81;100770.66;4999574;28;1379;-63
2021/06/11 08:10:00;;;;;;;;;;;;;;;21.34;69.11;100762.97;5000378;28;1633;-63
2021/06/11 08:12:28;;;;;;;;;;;;;;;21.31;68.25;100763.28;5003313;28;901;-63
2021/06/11 08:14:54;;;;;;;;;;;;;;;21.30;68.83;100771.50;5008287;28;1617;-72
2021/06/11 08:17:20;;;;;;;;;;;;;;;21.31;69.26;100774.06;4999794;28;1635;-72
2021/06/11 08:19:46;;;;;;;;;;;;;;;21.28;68.71;100768.97;4999920;28;1887;-72
2021/06/11 08:22:12;;;;;;;;;;;;;;;21.29;69.48;100770.66;5001560;28;1626;-72
2021/06/11 08:24:38;;;;;;;;;;;;;;;21.28;68.84;100758.19;4998710;28;1621;-63
2021/06/11 08:27:04;;;;;;;;;;;;;;;21.29;69.76;100772.50;5000098;28;1115;-72
2021/06/11 08:29:32;;;;;;;;;;;;;;;21.30;69.66;100766.97;4999619;28;1602;-72
2021/06/11 08:31:58;;;;;;;;;;;;;;;21.31;69.34;100771.38;5000216;28;1649;-72
2021/06/11 08:34:25;;;;;;;;;;;;;;;21.29;69.62;100780.56;5004044;28;1391;-62
2021/06/11 08:36:51;;;;;;;;;;;;;;;21.28;69.18;100762.75;5004928;28;1591;-72
2021/06/11 08:39:17;;;;;;;;;;;;;;;21.27;69.71;100769.97;5005030;28;1983;-62
2021/06/11 08:41:43;;;;;;;;;;;;;;;21.28;69.25;100766.28;5004742;28;1441;-63
2021/06/11 08:44:09;;;;;;;;;;;;;;;21.24;70.12;100771.09;5007414;28;987;-72
2021/06/11 08:46:38;;;;;;;;;;;;;;;21.28;69.34;100779.72;5002565;28;1373;-72
2021/06/11 08:49:04;;;;;;;;;;;;;;;21.26;69.88;100776.34;5003817;28;1390;-63
2021/06/11 08:51:30;;;;;;;;;;;;;;;21.23;69.77;100760.50;5004688;28;1405;-63
2021/06/11 08:53:56;;;;;;;;;;;;;;;21.24;69.89;100762.19;5005407;28;1574;-63
2021/06/11 08:56:22;;;;;;;;;;;;;;;21.22;69.83;100772.25;5005535;28;1598;-63
2021/06/11 08:58:50;;;;;;;;;;;;;;;21.23;70.17;100750.59;5007763;28;1898;-63
2021/06/11 09:01:16;;;;;;;;;;;;;;;21.22;69.75;100756.94;5003019;28;1416;-63
2021/06/11 09:03:44;;;;;;;;;;;;;;;21.24;69.39;100754.97;5002864;28;1537;-72
2021/06/11 09:06:13;;;;;;;;;;;;;;;21.29;69.78;100765.28;5003487;28;1710;-72
2021/06/11 09:08:39;;;;;;;;;;;;;;;21.29;70.40;100756.34;5004388;28;1575;-63
2021/06/11 09:11:10;;;;;;;;;;;;;;;21.31;70.36;100763.28;5004657;28;1570;-72
2021/06/11 09:13:36;;;;;;;;;;;;;;;21.31;69.33;100762.44;5011735;28;1046;-63
2021/06/11 09:16:10;;;;;;;;;;;;;;;21.28;69.47;100750.13;5003012;28;1812;-72
2021/06/11 09:18:48;;;;;;;;;;;;;;;21.30;69.74;100748.13;4996762;28;1906;-72
2021/06/11 09:21:24;;;;;;;;;;;;;;;21.26;69.47;100749.44;4996172;28;1515;-63
2021/06/11 09:24:08;;;;;;;;;;;;;;;21.29;70.11;100759.03;4995707;28;1746;-72
2021/06/11 09:26:34;;;;;;;;;;;;;;;21.26;70.29;100765.56;4997059;28;1703;-72
2021/06/11 09:29:15;;;;;;;;;;;;;;;21.29;70.00;100753.66;5012001;28;1390;-73
2021/06/11 09:31:41;;;;;;;;;;;;;;;21.24;70.23;100738.81;5002851;28;1326;-72
2021/06/11 09:34:18;;;;;;;;;;;;;;;21.28;70.31;100741.22;5003333;28;1036;-63
2021/06/11 09:36:57;;;;;;;;;;;;;;;21.28;70.13;100744.75;5003067;28;995;-63
2021/06/11 09:39:23;;;;;;;;;;;;;;;21.30;69.68;100726.63;5002600;28;1903;-71
2021/06/11 09:42:01;;;;;;;;;;;;;;;21.28;69.59;100728.63;5001613;28;1494;-63
2021/06/11 09:44:27;;;;;;;;;;;;;;;21.30;70.35;100732.00;5010168;28;1448;-63
2021/06/11 09:46:53;;;;;;;;;;;;;;;21.29;70.00;100714.19;5005624;28;984;-72
2021/06/11 09:49:25;;;;;;;;;;;;;;;21.29;70.50;100743.78;5001773;28;1598;-72
2021/06/11 09:52:03;;;;;;;;;;;;;;;21.29;70.77;100724.94;5002071;28;1444;-63
2021/06/11 09:54:29;;;;;;;;;;;;;;;21.30;70.49;100721.25;4995876;28;1618;-72
2021/06/11 09:56:55;;;;;;;;;;;;;;;21.27;70.60;100724.25;5003842;28;1617;-63
2021/06/11 09:59:36;;;;;;;;;;;;;;;21.24;70.27;100714.63;5008446;28;1995;-72
2021/06/11 10:02:11;;;;;;;;;;;;;;;21.22;70.25;100699.63;5001351;28;1757;-62
2021/06/11 10:04:41;;;;;;;;;;;;;;;21.24;70.11;100698.47;5001868;28;1263;-72
2021/06/11 10:07:07;;;;;;;;;;;;;;;21.23;70.61;100701.34;4999265;28;1477;-72
2021/06/11 10:09:33;;;;;;;;;;;;;;;21.22;69.98;100694.25;5002756;28;1652;-72
2021/06/11 10:12:00;;;;;;;;;;;;;;;21.24;70.66;100703.03;5002574;28;1063;-63
2021/06/11 10:14:26;;;;;;;;;;;;;;;21.25;70.46;100688.59;5010614;28;1820;-63
2021/06/11 10:16:52;;;;;;;;;;;;;;;21.23;70.89;100690.59;5003456;28;1638;-63
2021/06/11 10:19:18;;;;;;;;;;;;;;;21.22;71.04;100687.03;5000676;28;1965;-63
2021/06/11 10:21:46;;;;;;;;;;;;;;;21.22;70.28;100686.19;5002147;28;967;-63
2021/06/11 10:24:14;;;;;;;;;;;;;;;21.24;70.14;100686.88;5001579;28;1595;-72
2021/06/11 10:26:40;;;;;;;;;;;;;;;21.25;70.53;100683.22;5001883;28;1665;-63
2021/06/11 10:29:07;;;;;;;;;;;;;;;21.23;70.91;100679.84;4999244;28;1738;-63
2021/06/11 10:31:36;;;;;;;;;;;;;;;21.23;70.16;100672.59;5003339;28;1583;-63
2021/06/11 10:34:04;;;;;;;;;;;;;;;21.26;70.28;100674.97;5003348;28;1661;-72
2021/06/11 10:36:42;;;;;;;;;;;;;;;21.24;70.34;100668.91;5002634;28;1385;-62
2021/06/11 10:39:32;;;;;;;;;;;;;;;21.27;70.43;100670.47;5003048;28;1979;-63
2021/06/11 10:42:05;;;;;;;;;;;;;;;21.27;70.19;100643.56;4984527;28;1719;-72
2021/06/11 10:44:32;;;;;;;;;;;;;;;21.27;70.78;100643.56;5007013;28;1707;-62
2021/06/11 10:47:16;;;;;;;;;;;;;;;21.29;70.27;100652.31;5002726;28;1097;-72
2021/06/11 10:49:57;;;;;;;;;;;;;;;21.29;70.25;100640.69;5004239;28;981;-72
2021/06/11 10:52:33;;;;;;;;;;;;;;;21.30;69.99;100640.56;5004287;28;1465;-63
2021/06/11 10:55:24;;;;;;;;;;;;;;;21.30;70.10;100653.16;5003383;28;1087;-62
2021/06/11 10:58:06;;;;;;;;;;;;;;;21.27;70.13;100632.81;5000059;28;1092;-72
2021/06/11 11:00:34;;;;;;;;;;;;;;;21.28;70.49;100653.31;5003176;28;1971;-72
2021/06/11 11:03:01;;;;;;;;;;;;;;;21.28;70.22;100645.25;5002967;28;1613;-63
2021/06/11 11:05:28;;;;;;;;;;;;;;;21.26;70.58;100631.09;5002955;28;1622;-72
2021/06/11 11:07:55;;;;;;;;;;;;;;;21.30;70.52;100651.31;5003179;28;1414;-63
2021/06/11 11:10:32;;;;;;;;;;;;;;;21.28;70.29;100637.16;5001494;28;1574;-72
2021/06/11 11:12:59;;;;;;;;;;;;;;;21.28;70.99;100633.66;4996503;28;1049;-72
2021/06/11 11:15:34;;;;;;;;;;;;;;;21.27;70.51;100605.91;5006532;28;1717;-72
2021/06/11 11:18:00;;;;;;;;;;;;;;;21.28;70.40;100623.72;5002405;28;1511;-72
2021/06/11 11:20:30;;;;;;;;;;;;;;;21.29;70.41;100603.03;5002452;28;1903;-72
2021/06/11 11:22:59;;;;;;;;;;;;;;;21.28;71.23;100617.50;5001666;28;1499;-72
2021/06/11 11:25:25;;;;;;;;;;;;;;;21.28;70.91;100617.50;5000708;28;1570;-72
2021/06/11 11:27:52;;;;;;;;;;;;;;;21.28;71.33;100618.34;5000991;28;1578;-63
2021/06/11 11:30:19;;;;;;;;;;;;;;;21.28;70.96;100607.59;5002502;28;1487;-72
2021/06/11 11:32:47;;;;;;;;;;;;;;;21.27;70.99;100616.66;5001402;28;1483;-63
2021/06/11 11:35:16;;;;;;;;;;;;;;;21.28;70.57;100610.28;5001963;28;1064;-72
2021/06/11 11:37:42;;;;;;;;;;;;;;;21.26;70.35;100609.59;5000485;28;1722;-72
2021/06/11 11:40:09;;;;;;;;;;;;;;;21.28;70.30;100607.59;5006288;28;1906;-72
2021/06/11 11:42:35;;;;;;;;;;;;;;;21.26;70.41;100594.28;4998026;28;1582;-63
2021/06/11 11:45:01;;;;;;;;;;;;;;;21.27;70.20;100600.53;5007726;28;1602;-62
2021/06/11 11:47:27;;;;;;;;;;;;;;;21.31;71.00;100623.44;5001772;28;1637;-63
2021/06/11 11:49:54;;;;;;;;;;;;;;;21.28;70.50;100610.28;5001209;28;1490;-72
2021/06/11 11:52:20;;;;;;;;;;;;;;;21.26;70.48;100615.81;5003078;28;1007;-72
2021/06/11 11:54:46;;;;;;;;;;;;;;;21.26;71.15;100614.97;4999573;28;1599;-72
2021/06/11 11:57:13;;;;;;;;;;;;;;;21.22;70.96;100595.59;4999759;28;1610;-72
2021/06/11 11:59:39;;;;;;;;;;;;;;;21.21;70.82;100614.59;4983116;28;1906;-72
2021/06/11 12:02:07;;;;;;;;;;;;;;;21.24;70.70;100603.50;5000089;28;1555;-63
2021/06/11 12:04:32;;;;;;;;;;;;;;;21.25;71.14;100602.53;5000983;28;1391;-63
2021/06/11 12:07:00;;;;;;;;;;;;;;;21.23;70.80;100605.38;5001013;28;1575;-63
2021/06/11 12:09:26;;;;;;;;;;;;;;;21.21;70.74;100593.91;5000817;28;1000;-63
2021/06/11 12:11:52;;;;;;;;;;;;;;;21.23;71.13;100604.53;5000154;28;1761;-63
2021/06/11 12:14:18;;;;;;;;;;;;;;;21.24;71.30;100614.28;5009597;28;1612;-62
2021/06/11 12:16:44;;;;;;;;;;;;;;;21.25;70.81;100607.91;5001124;28;1563;-63
2021/06/11 12:19:10;;;;;;;;;;;;;;;21.23;71.43;100615.28;5017867;28;1911;-63
2021/06/11 12:21:36;;;;;;;;;;;;;;;21.23;71.15;100608.06;4999007;28;1694;-63
2021/06/11 12:24:04;;;;;;;;;;;;;;;21.22;71.38;100595.59;5000332;28;1773;-63
2021/06/11 12:26:30;;;;;;;;;;;;;;;21.22;70.61;100592.06;4993467;28;1754;-64
2021/06/11 12:28:56;;;;;;;;;;;;;;;21.21;71.53;100601.16;5001896;28;1622;-72
2021/06/11 12:31:23;;;;;;;;;;;;;;;21.20;70.79;100589.53;5002159;28;1665;-63
2021/06/11 12:33:49;;;;;;;;;;;;;;;21.20;70.75;100594.91;5002045;28;1559;-63
2021/06/11 12:36:15;;;;;;;;;;;;;;;21.20;70.77;100591.38;5000721;28;1286;-72
2021/06/11 12:38:41;;;;;;;;;;;;;;;21.21;71.33;100618.13;4999828;28;1977;-62
2021/06/11 12:41:10;;;;;;;;;;;;;;;21.21;70.54;100602.00;5000037;28;1610;-72
2021/06/11 12:46:22;;;;;;;;;;;;;;;21.19;71.13;100606.69;4997476;28;1762;-63
2021/06/11 12:48:48;;;;;;;;;;;;;;;21.20;71.27;100599.44;5001243;28;1358;-63
2021/06/11 12:51:14;;;;;;;;;;;;;;;21.20;71.01;100592.22;5002072;28;1547;-72
2021/06/11 12:53:40;;;;;;;;;;;;;;;21.19;71.58;100592.41;5000145;28;1642;-64
2021/06/11 12:56:06;;;;;;;;;;;;;;;21.18;70.58;100590.69;5000820;28;1571;-63
2021/06/11 12:58:34;;;;;;;;;;;;;;;21.19;71.41;100593.22;5002817;28;1910;-72
2021/06/11 13:01:00;;;;;;;;;;;;;;;21.21;71.41;100587.72;4999137;28;1672;-62
2021/06/11 13:03:26;;;;;;;;;;;;;;;21.20;71.48;100589.53;5000614;28;1543;-72